Time;durP1;ratioP1;P1;durP2;ratioP2;P2;SDS_P1;SDS_P2;PMS_P1;PMS_P2;Temp;Humidity;BMP_temperature;BMP_pressure;BME280_temperature;BME280_humidity;BME280_pressure;Samples;Min_cycle;Max_cycle;Signal;HPM_P1;HPM_P2
2023/02/08 00:00:11;;;;;;;;;;;-3.10;77.20;;;;;;5002027;28;89401;-37
2023/02/08 00:02:36;;;;;;;;;;;-3.10;77.30;;;;;;5002097;28;87127;-37
2023/02/08 00:05:02;;;;;;;;;;;-3.10;77.20;;;;;;5002467;28;89175;-37
2023/02/08 00:07:27;;;;;;;;;;;-3.10;77.20;;;;;;5001801;28;89813;-37
2023/02/08 00:09:53;;;;;;;;;;;-3.10;77.20;;;;;;5002263;28;87112;-37
2023/02/08 00:12:18;;;;;;;;;;;-3.10;77.30;;;;;;5001723;28;87985;-37
2023/02/08 00:14:44;;;;;;;;;;;-3.20;77.30;;;;;;5004487;28;89299;-37
2023/02/08 00:17:09;;;;;;;;;;;-3.20;77.20;;;;;;5002104;28;89180;-37
2023/02/08 00:19:35;;;;;;;;;;;-3.20;77.10;;;;;;5002035;28;88061;-37
2023/02/08 00:22:00;;;;;;;;;;;-3.20;77.30;;;;;;5001875;28;87191;-37
2023/02/08 00:24:25;;;;;;;;;;;-3.20;77.30;;;;;;5002024;28;89513;-37
2023/02/08 00:26:52;;;;;;;;;;;-3.10;77.20;;;;;;5001178;28;89342;-38
2023/02/08 00:29:18;;;;;;;;;;;-3.20;77.80;;;;;;5002502;28;86434;-38
2023/02/08 00:31:43;;;;;;;;;;;-3.20;77.30;;;;;;5001671;28;88253;-37
2023/02/08 00:34:09;;;;;;;;;;;-3.20;77.30;;;;;;5001462;28;89151;-37
2023/02/08 00:36:34;;;;;;;;;;;-3.20;77.40;;;;;;5005100;28;88119;-38
2023/02/08 00:39:00;;;;;;;;;;;-3.20;77.40;;;;;;5004770;28;89411;-37
2023/02/08 00:41:25;;;;;;;;;;;-3.20;77.30;;;;;;5005152;28;87181;-37
2023/02/08 00:43:51;;;;;;;;;;;-3.20;77.20;;;;;;5005377;28;87614;-37
2023/02/08 00:46:16;;;;;;;;;;;-3.20;77.10;;;;;;5005039;28;88105;-37
2023/02/08 00:48:42;;;;;;;;;;;-3.20;77.10;;;;;;5005302;28;87393;-37
2023/02/08 00:51:09;;;;;;;;;;;-3.20;77.20;;;;;;5005185;28;88867;-37
2023/02/08 00:53:35;;;;;;;;;;;-3.20;77.20;;;;;;5005072;28;88514;-37
2023/02/08 00:56:01;;;;;;;;;;;-3.30;77.20;;;;;;5007733;28;87116;-37
2023/02/08 00:58:26;;;;;;;;;;;-3.30;77.20;;;;;;5004709;28;89217;-37
2023/02/08 01:00:52;;;;;;;;;;;-3.20;77.30;;;;;;5004480;28;88056;-37
2023/02/08 01:03:18;;;;;;;;;;;-3.30;77.30;;;;;;5004785;28;88542;-37
2023/02/08 01:05:44;;;;;;;;;;;-3.30;77.20;;;;;;5003942;28;89101;-37
2023/02/08 01:08:09;;;;;;;;;;;-3.30;77.30;;;;;;5004658;28;87487;-36
2023/02/08 01:10:35;;;;;;;;;;;-3.30;77.30;;;;;;5004882;28;87762;-37
2023/02/08 01:13:00;;;;;;;;;;;-3.30;77.30;;;;;;5004299;28;89523;-37
2023/02/08 01:15:26;;;;;;;;;;;-3.30;77.30;;;;;;5005132;28;87135;-37
2023/02/08 01:17:55;;;;;;;;;;;-3.30;77.20;;;;;;5007590;28;88927;-37
2023/02/08 01:20:21;;;;;;;;;;;-3.30;77.20;;;;;;5004884;28;87045;-37
2023/02/08 01:22:46;;;;;;;;;;;-3.40;77.30;;;;;;5004395;28;87731;-37
2023/02/08 01:25:12;;;;;;;;;;;-3.40;77.40;;;;;;5003213;28;90259;-37
2023/02/08 01:27:37;;;;;;;;;;;-3.30;77.40;;;;;;5004367;28;86915;-37
2023/02/08 01:30:03;;;;;;;;;;;-3.30;77.40;;;;;;5004297;28;88002;-37
2023/02/08 01:32:29;;;;;;;;;;;-3.40;77.40;;;;;;5003955;28;91101;-37
2023/02/08 01:34:54;;;;;;;;;;;-3.40;77.40;;;;;;5004243;28;87061;-37
2023/02/08 01:37:20;;;;;;;;;;;-3.40;77.50;;;;;;5004342;28;88919;-37
2023/02/08 01:39:45;;;;;;;;;;;-3.40;77.50;;;;;;5006744;28;89625;-37
2023/02/08 01:42:12;;;;;;;;;;;-3.40;77.50;;;;;;5004574;28;88823;-38
2023/02/08 01:44:56;;;;;;;;;;;-3.40;77.50;;;;;;5003971;28;88590;-37
2023/02/08 01:47:21;;;;;;;;;;;-3.40;77.50;;;;;;5003753;28;87091;-37
2023/02/08 01:49:47;;;;;;;;;;;-3.40;77.50;;;;;;5003454;28;88034;-37
2023/02/08 01:52:14;;;;;;;;;;;-3.40;77.50;;;;;;5003797;28;89528;-37
2023/02/08 01:54:45;;;;;;;;;;;-3.40;77.60;;;;;;5003717;28;87089;-37
2023/02/08 01:57:11;;;;;;;;;;;-3.50;77.60;;;;;;5003951;28;89087;-37
2023/02/08 01:59:44;;;;;;;;;;;-3.40;77.70;;;;;;5003639;28;89171;-37
2023/02/08 02:02:11;;;;;;;;;;;-3.40;77.60;;;;;;5006836;28;87021;-37
2023/02/08 02:04:37;;;;;;;;;;;-3.50;77.60;;;;;;5003584;28;89482;-37
2023/02/08 02:07:03;;;;;;;;;;;-3.40;77.70;;;;;;5003960;28;86432;-37
2023/02/08 02:09:46;;;;;;;;;;;-3.50;77.70;;;;;;5003722;28;88154;-37
2023/02/08 02:12:11;;;;;;;;;;;-3.50;77.80;;;;;;5003703;28;88309;-36
2023/02/08 02:14:37;;;;;;;;;;;-3.50;77.70;;;;;;5003432;28;88104;-37
2023/02/08 02:17:03;;;;;;;;;;;-3.50;77.70;;;;;;5003767;28;90069;-37
2023/02/08 02:19:39;;;;;;;;;;;-3.50;77.70;;;;;;5003302;28;89357;-37
2023/02/08 02:22:11;;;;;;;;;;;-3.50;77.80;;;;;;5003544;28;87169;-38
2023/02/08 02:24:52;;;;;;;;;;;-3.50;77.90;;;;;;5005930;28;88975;-37
2023/02/08 02:27:33;;;;;;;;;;;-3.50;77.90;;;;;;5003575;28;87109;-37
2023/02/08 02:30:17;;;;;;;;;;;-3.60;77.80;;;;;;5003422;28;87477;-38
2023/02/08 02:32:45;;;;;;;;;;;-3.50;77.90;;;;;;5003639;28;88515;-37
2023/02/08 02:35:15;;;;;;;;;;;-3.60;77.90;;;;;;5003082;28;87057;-37
2023/02/08 02:37:40;;;;;;;;;;;-3.60;77.90;;;;;;5003491;28;88552;-37
2023/02/08 02:40:15;;;;;;;;;;;-3.60;78.00;;;;;;5002579;28;90100;-37
2023/02/08 02:45:55;;;;;;;;;;;-3.50;78.00;;;;;;5002039;28;87017;-38
2023/02/08 02:48:21;;;;;;;;;;;-3.60;77.90;;;;;;5005963;28;90178;-37
2023/02/08 02:51:21;;;;;;;;;;;-3.60;78.00;;;;;;5003093;28;87514;-37
2023/02/08 02:53:47;;;;;;;;;;;-3.60;78.00;;;;;;4960885;28;89615;-37
2023/02/08 02:56:16;;;;;;;;;;;-3.60;78.10;;;;;;4993842;28;87170;-37
2023/02/08 02:58:42;;;;;;;;;;;-3.60;78.20;;;;;;5003062;28;88875;-37
2023/02/08 03:01:07;;;;;;;;;;;-3.60;78.10;;;;;;5002212;28;88527;-37
2023/02/08 03:03:33;;;;;;;;;;;-3.60;78.10;;;;;;5002899;28;87062;-37
2023/02/08 03:06:04;;;;;;;;;;;-3.60;78.20;;;;;;5001939;28;88858;-37
2023/02/08 03:08:42;;;;;;;;;;;-3.60;78.20;;;;;;5005477;28;89236;-37
2023/02/08 03:11:13;;;;;;;;;;;-3.70;78.20;;;;;;5003014;28;89191;-37
2023/02/08 03:13:57;;;;;;;;;;;-3.70;78.30;;;;;;5002329;28;89278;-37
2023/02/08 03:16:27;;;;;;;;;;;-3.70;78.30;;;;;;5002908;28;87140;-37
2023/02/08 03:18:53;;;;;;;;;;;-3.70;78.20;;;;;;5002758;28;89124;-37
2023/02/08 03:21:27;;;;;;;;;;;-3.70;78.20;;;;;;5002367;28;89298;-37
2023/02/08 03:23:57;;;;;;;;;;;-3.70;78.30;;;;;;5003115;28;86982;-37
2023/02/08 03:26:30;;;;;;;;;;;-3.70;78.20;;;;;;5002504;28;87335;-37
2023/02/08 03:29:13;;;;;;;;;;;-3.70;78.20;;;;;;5002428;28;89225;-37
2023/02/08 03:31:39;;;;;;;;;;;-3.70;78.20;;;;;;5005330;28;88607;-38
2023/02/08 03:34:06;;;;;;;;;;;-3.70;78.20;;;;;;5002248;28;88537;-37
2023/02/08 03:36:44;;;;;;;;;;;-3.70;78.00;;;;;;5002455;28;87020;-37
2023/02/08 03:39:12;;;;;;;;;;;-3.70;78.10;;;;;;5002703;28;88586;-37
2023/02/08 03:41:38;;;;;;;;;;;-3.70;78.10;;;;;;5002203;28;89305;-37
2023/02/08 03:44:08;;;;;;;;;;;-3.70;78.10;;;;;;5002365;28;87039;-37
2023/02/08 03:46:37;;;;;;;;;;;-3.70;78.10;;;;;;5002337;28;88721;-37
2023/02/08 03:49:13;;;;;;;;;;;-3.70;78.20;;;;;;5002583;28;88539;-37
2023/02/08 03:51:39;;;;;;;;;;;-3.80;78.20;;;;;;5002522;28;87119;-37
2023/02/08 03:54:06;;;;;;;;;;;-3.70;78.20;;;;;;5004635;28;88040;-37
2023/02/08 03:56:35;;;;;;;;;;;-3.70;78.30;;;;;;5001846;28;88342;-37
2023/02/08 03:59:03;;;;;;;;;;;-3.70;78.60;;;;;;5002299;28;89638;-37
2023/02/08 04:01:35;;;;;;;;;;;-3.70;78.30;;;;;;5001793;28;89754;-36
2023/02/08 04:04:01;;;;;;;;;;;-3.80;78.30;;;;;;5002186;28;86987;-37
2023/02/08 04:06:26;;;;;;;;;;;-3.80;78.30;;;;;;5002087;28;87044;-37
2023/02/08 04:08:52;;;;;;;;;;;-3.80;78.30;;;;;;5001719;28;88700;-37
2023/02/08 04:11:18;;;;;;;;;;;-3.80;78.40;;;;;;5003777;28;87149;-37
2023/02/08 04:13:43;;;;;;;;;;;-3.80;78.40;;;;;;5006066;28;88873;-37
2023/02/08 04:16:10;;;;;;;;;;;-3.80;78.30;;;;;;5008551;28;88187;-37
2023/02/08 04:18:36;;;;;;;;;;;-3.80;78.20;;;;;;5005523;28;89033;-37
2023/02/08 04:21:01;;;;;;;;;;;-3.80;78.40;;;;;;5004381;28;89507;-37
2023/02/08 04:23:26;;;;;;;;;;;-3.80;78.40;;;;;;5005427;28;87176;-36
2023/02/08 04:25:52;;;;;;;;;;;-3.80;78.40;;;;;;5005482;28;88704;-37
2023/02/08 04:28:18;;;;;;;;;;;-3.80;79.10;;;;;;5004934;28;89393;-37
2023/02/08 04:30:43;;;;;;;;;;;-3.80;78.40;;;;;;5005652;28;86988;-38
2023/02/08 04:33:10;;;;;;;;;;;-3.80;78.30;;;;;;5005432;28;88927;-37
2023/02/08 04:35:35;;;;;;;;;;;-3.80;78.10;;;;;;5004723;28;89543;-37
2023/02/08 04:38:01;;;;;;;;;;;-3.80;78.10;;;;;;5008510;28;86375;-37
2023/02/08 04:40:26;;;;;;;;;;;-3.80;78.10;;;;;;5004948;28;89474;-37
2023/02/08 04:42:52;;;;;;;;;;;-3.80;78.10;;;;;;5005276;28;87052;-37
2023/02/08 04:45:17;;;;;;;;;;;-3.90;78.10;;;;;;5004694;28;89082;-37
2023/02/08 04:47:43;;;;;;;;;;;-3.80;78.10;;;;;;5005063;28;88033;-37
2023/02/08 04:50:09;;;;;;;;;;;-3.80;78.10;;;;;;5004739;28;87153;-37
2023/02/08 04:52:34;;;;;;;;;;;-3.80;78.00;;;;;;5004898;28;88885;-37
2023/02/08 04:55:00;;;;;;;;;;;-3.80;78.00;;;;;;5004507;28;89475;-37
2023/02/08 04:57:25;;;;;;;;;;;-3.80;77.90;;;;;;5004933;28;87273;-37
2023/02/08 04:59:51;;;;;;;;;;;-3.80;77.90;;;;;;5007546;28;88559;-37
2023/02/08 05:02:16;;;;;;;;;;;-3.80;78.00;;;;;;5005469;28;86515;-37
2023/02/08 05:04:42;;;;;;;;;;;-3.80;77.90;;;;;;5004736;28;88046;-37
2023/02/08 05:07:07;;;;;;;;;;;-3.80;78.00;;;;;;5004072;28;89308;-36
2023/02/08 05:09:33;;;;;;;;;;;-3.90;78.00;;;;;;5004155;28;88076;-37
2023/02/08 05:11:58;;;;;;;;;;;-3.90;78.00;;;;;;5004770;28;90127;-37
2023/02/08 05:14:24;;;;;;;;;;;-3.90;78.00;;;;;;5004259;28;89373;-38
2023/02/08 05:16:50;;;;;;;;;;;-3.90;78.50;;;;;;5004708;28;87163;-37
2023/02/08 05:19:15;;;;;;;;;;;-3.90;78.00;;;;;;5007283;28;88886;-37
2023/02/08 05:21:41;;;;;;;;;;;-3.90;78.00;;;;;;5004348;28;87203;-37
2023/02/08 05:24:06;;;;;;;;;;;-3.90;78.00;;;;;;5003784;28;87816;-37
2023/02/08 05:26:32;;;;;;;;;;;-3.90;78.00;;;;;;5004556;28;88539;-37
2023/02/08 05:28:57;;;;;;;;;;;-4.00;78.00;;;;;;5004723;28;87104;-37
2023/02/08 05:31:24;;;;;;;;;;;-3.90;78.00;;;;;;5004460;28;88767;-36
2023/02/08 05:33:50;;;;;;;;;;;-3.90;78.00;;;;;;5003292;28;90462;-37
2023/02/08 05:36:16;;;;;;;;;;;-3.90;77.90;;;;;;5004248;28;87033;-37
2023/02/08 05:38:41;;;;;;;;;;;-3.90;77.90;;;;;;5004391;28;88992;-37
2023/02/08 05:41:07;;;;;;;;;;;-4.00;77.90;;;;;;5007066;28;87973;-37
2023/02/08 05:43:32;;;;;;;;;;;-4.00;77.90;;;;;;5004326;28;88111;-37
2023/02/08 05:45:58;;;;;;;;;;;-3.90;77.80;;;;;;5003777;28;88477;-37
2023/02/08 05:48:23;;;;;;;;;;;-3.90;77.80;;;;;;5004177;28;87149;-37
2023/02/08 05:50:48;;;;;;;;;;;-3.90;77.80;;;;;;5004534;28;88889;-37
2023/02/08 05:53:14;;;;;;;;;;;-4.00;77.80;;;;;;5003760;28;89693;-37
2023/02/08 05:55:43;;;;;;;;;;;-4.00;77.80;;;;;;5004181;28;87137;-37
2023/02/08 05:58:08;;;;;;;;;;;-4.00;77.90;;;;;;5003552;28;87949;-37
2023/02/08 06:00:34;;;;;;;;;;;-4.00;77.80;;;;;;5003674;28;89599;-37
2023/02/08 06:02:59;;;;;;;;;;;-4.00;77.90;;;;;;5006894;28;86948;-37
2023/02/08 06:05:26;;;;;;;;;;;-4.00;77.90;;;;;;5003057;28;89577;-37
2023/02/08 06:07:52;;;;;;;;;;;-4.00;78.00;;;;;;5003968;28;86979;-37
2023/02/08 06:10:17;;;;;;;;;;;-4.00;78.10;;;;;;5003991;28;88832;-37
2023/02/08 06:12:43;;;;;;;;;;;-4.00;78.10;;;;;;5003396;28;89342;-37
2023/02/08 06:15:09;;;;;;;;;;;-4.00;78.10;;;;;;5003992;28;86430;-37
2023/02/08 06:17:34;;;;;;;;;;;-4.00;78.00;;;;;;5003813;28;88214;-37
2023/02/08 06:19:59;;;;;;;;;;;-4.10;78.10;;;;;;5003430;28;88359;-37
2023/02/08 06:22:25;;;;;;;;;;;-4.00;78.10;;;;;;5002933;28;88098;-37
2023/02/08 06:24:50;;;;;;;;;;;-4.00;78.20;;;;;;5005897;28;90112;-37
2023/02/08 06:27:16;;;;;;;;;;;-4.00;78.20;;;;;;5003582;28;87100;-37
2023/02/08 06:29:41;;;;;;;;;;;-4.10;78.20;;;;;;5003672;28;88761;-37
2023/02/08 06:32:07;;;;;;;;;;;-4.00;78.20;;;;;;5003136;28;89227;-37
2023/02/08 06:34:32;;;;;;;;;;;-4.00;78.30;;;;;;5002463;28;87314;-37
2023/02/08 06:37:01;;;;;;;;;;;-4.10;78.30;;;;;;5003535;28;87422;-37
2023/02/08 06:39:26;;;;;;;;;;;-4.10;78.30;;;;;;5003584;28;86452;-37
2023/02/08 06:41:52;;;;;;;;;;;-4.10;78.20;;;;;;5003713;28;87093;-37
2023/02/08 06:44:18;;;;;;;;;;;-4.10;78.10;;;;;;5003305;28;88570;-37
2023/02/08 06:46:43;;;;;;;;;;;-4.10;78.20;;;;;;5005315;28;90288;-36
2023/02/08 06:49:10;;;;;;;;;;;-4.00;78.30;;;;;;5003449;28;88435;-37
2023/02/08 06:51:35;;;;;;;;;;;-4.10;78.30;;;;;;5002674;28;89712;-37
2023/02/08 06:54:01;;;;;;;;;;;-4.10;78.30;;;;;;5003263;28;87056;-37
2023/02/08 06:56:26;;;;;;;;;;;-4.10;78.40;;;;;;5003161;28;89045;-37
2023/02/08 06:58:51;;;;;;;;;;;-4.10;78.40;;;;;;5002943;28;88010;-37
2023/02/08 07:01:17;;;;;;;;;;;-4.10;78.40;;;;;;5003278;28;87105;-37
2023/02/08 07:03:42;;;;;;;;;;;-4.10;78.40;;;;;;5003339;28;88990;-37
2023/02/08 07:06:15;;;;;;;;;;;-4.10;78.40;;;;;;5001927;28;89206;-37
2023/02/08 07:08:41;;;;;;;;;;;-4.10;78.20;;;;;;5005871;28;87001;-37
2023/02/08 07:11:07;;;;;;;;;;;-4.10;78.10;;;;;;5002157;28;90467;-37
2023/02/08 07:13:33;;;;;;;;;;;-4.00;78.10;;;;;;5002893;28;87178;-37
2023/02/08 07:15:58;;;;;;;;;;;-4.10;78.20;;;;;;5002901;28;88844;-37
2023/02/08 07:18:24;;;;;;;;;;;-4.10;78.20;;;;;;5002677;28;87974;-37
2023/02/08 07:20:49;;;;;;;;;;;-4.10;78.20;;;;;;5002677;28;87173;-37
2023/02/08 07:23:15;;;;;;;;;;;-4.00;78.10;;;;;;5002781;28;88820;-37
2023/02/08 07:25:40;;;;;;;;;;;-4.10;78.10;;;;;;5002029;28;89179;-37
2023/02/08 07:28:06;;;;;;;;;;;-4.00;78.10;;;;;;5005960;28;86435;-37
2023/02/08 07:30:31;;;;;;;;;;;-4.00;78.00;;;;;;5002612;28;88163;-37
2023/02/08 07:32:57;;;;;;;;;;;-4.00;78.20;;;;;;5002840;28;87145;-37
2023/02/08 07:35:22;;;;;;;;;;;-4.00;78.20;;;;;;5001927;28;88068;-37
2023/02/08 07:37:48;;;;;;;;;;;-4.10;78.20;;;;;;5002611;28;87941;-37
2023/02/08 07:40:13;;;;;;;;;;;-4.10;78.30;;;;;;5002677;28;87117;-37
2023/02/08 07:42:39;;;;;;;;;;;-4.10;78.30;;;;;;5002522;28;89078;-37
2023/02/08 07:45:04;;;;;;;;;;;-4.00;78.20;;;;;;5001899;28;88200;-37
2023/02/08 07:47:30;;;;;;;;;;;-4.00;78.20;;;;;;5002418;28;87179;-37
2023/02/08 07:49:55;;;;;;;;;;;-4.00;78.10;;;;;;5004972;28;88796;-37
2023/02/08 07:52:21;;;;;;;;;;;-4.00;78.10;;;;;;5002941;28;86417;-37
2023/02/08 07:54:46;;;;;;;;;;;-4.00;78.00;;;;;;5002628;28;86967;-37
2023/02/08 07:57:12;;;;;;;;;;;-4.10;78.00;;;;;;5001882;28;89712;-37
2023/02/08 07:59:37;;;;;;;;;;;-4.00;78.10;;;;;;5001639;28;88070;-37
2023/02/08 08:02:03;;;;;;;;;;;-4.00;78.20;;;;;;5002428;28;88337;-37
2023/02/08 08:04:28;;;;;;;;;;;-4.00;78.00;;;;;;5002120;28;88137;-37
2023/02/08 08:06:54;;;;;;;;;;;-4.00;77.90;;;;;;5001840;28;87121;-37
2023/02/08 08:09:19;;;;;;;;;;;-4.00;77.90;;;;;;5002325;28;87993;-37
2023/02/08 08:11:45;;;;;;;;;;;-4.00;77.70;;;;;;5004961;28;89918;-37
2023/02/08 08:14:10;;;;;;;;;;;-4.00;77.60;;;;;;5001949;28;89022;-37
2023/02/08 08:16:36;;;;;;;;;;;-4.00;77.50;;;;;;5002457;28;87267;-37
2023/02/08 08:19:01;;;;;;;;;;;-4.00;77.50;;;;;;5002243;28;87001;-37
2023/02/08 08:21:27;;;;;;;;;;;-4.00;77.50;;;;;;5002082;28;88814;-37
2023/02/08 08:23:54;;;;;;;;;;;-4.00;77.50;;;;;;5001040;28;90495;-37
2023/02/08 08:26:20;;;;;;;;;;;-4.00;77.40;;;;;;5001646;28;89213;-37
2023/02/08 08:28:45;;;;;;;;;;;-4.00;77.30;;;;;;5001815;28;87708;-37
2023/02/08 08:31:12;;;;;;;;;;;-4.00;77.40;;;;;;5001617;28;89426;-37
2023/02/08 08:33:38;;;;;;;;;;;-4.00;77.40;;;;;;5004697;28;87144;-37
2023/02/08 08:36:03;;;;;;;;;;;-4.00;77.40;;;;;;5001176;28;89497;-37
2023/02/08 08:38:29;;;;;;;;;;;-4.00;77.40;;;;;;5002089;28;87166;-37
2023/02/08 08:40:54;;;;;;;;;;;-4.00;77.40;;;;;;5002350;28;88467;-37
2023/02/08 08:43:20;;;;;;;;;;;-4.00;77.40;;;;;;5001594;28;88063;-37
2023/02/08 08:45:45;;;;;;;;;;;-4.00;77.50;;;;;;5002082;28;87135;-37
2023/02/08 08:48:11;;;;;;;;;;;-4.00;77.50;;;;;;5001092;28;88974;-37
2023/02/08 08:50:37;;;;;;;;;;;-4.00;77.50;;;;;;5001228;28;89801;-37
2023/02/08 08:53:03;;;;;;;;;;;-4.00;77.50;;;;;;5001614;28;87122;-37
2023/02/08 08:55:28;;;;;;;;;;;-4.00;77.50;;;;;;5004383;28;87334;-37
2023/02/08 08:57:54;;;;;;;;;;;-4.00;77.60;;;;;;5002652;28;87121;-37
2023/02/08 09:00:20;;;;;;;;;;;-4.10;77.50;;;;;;5004973;28;88916;-37
2023/02/08 09:02:45;;;;;;;;;;;-4.10;77.50;;;;;;5004730;28;89578;-37
2023/02/08 09:05:11;;;;;;;;;;;-4.10;77.40;;;;;;5005167;28;86400;-37
2023/02/08 09:07:36;;;;;;;;;;;-4.00;77.50;;;;;;5004865;28;88348;-37
2023/02/08 09:10:02;;;;;;;;;;;-4.10;77.50;;;;;;5004451;28;89489;-37
2023/02/08 09:12:28;;;;;;;;;;;-4.10;77.50;;;;;;5004438;28;88083;-37
2023/02/08 09:14:53;;;;;;;;;;;-4.10;77.60;;;;;;5007178;28;89627;-37
2023/02/08 09:17:19;;;;;;;;;;;-4.10;77.50;;;;;;5004610;28;87214;-37
2023/02/08 09:19:46;;;;;;;;;;;-4.00;77.60;;;;;;5004876;28;87408;-37
2023/02/08 09:22:12;;;;;;;;;;;-4.10;77.70;;;;;;5004092;28;89539;-37
2023/02/08 09:24:37;;;;;;;;;;;-4.10;77.70;;;;;;5004597;28;87291;-37
2023/02/08 09:27:03;;;;;;;;;;;-4.00;77.60;;;;;;5004656;28;88716;-37
2023/02/08 09:29:29;;;;;;;;;;;-4.00;77.60;;;;;;5004659;28;89030;-37
2023/02/08 09:31:55;;;;;;;;;;;-4.00;77.50;;;;;;5004541;28;87051;-36
2023/02/08 09:34:20;;;;;;;;;;;-4.00;77.50;;;;;;5004243;28;88869;-36
2023/02/08 09:36:46;;;;;;;;;;;-4.00;77.50;;;;;;5006268;28;89982;-37
2023/02/08 09:39:17;;;;;;;;;;;-4.00;77.50;;;;;;5004462;28;88402;-37
2023/02/08 09:41:54;;;;;;;;;;;-4.00;77.60;;;;;;5004049;28;88691;-37
2023/02/08 09:44:29;;;;;;;;;;;-3.90;77.50;;;;;;5004230;28;87078;-37
2023/02/08 09:47:01;;;;;;;;;;;-3.90;77.40;;;;;;5004643;28;87442;-37
2023/02/08 09:49:29;;;;;;;;;;;-3.90;77.40;;;;;;5003840;28;87827;-37
2023/02/08 09:51:57;;;;;;;;;;;-3.90;77.40;;;;;;5004028;28;87125;-37
2023/02/08 09:54:27;;;;;;;;;;;-3.90;77.40;;;;;;5004644;28;88560;-37
2023/02/08 09:56:52;;;;;;;;;;;-3.90;77.20;;;;;;5003936;28;89435;-37
2023/02/08 09:59:28;;;;;;;;;;;-3.90;77.20;;;;;;5006905;28;87085;-37
2023/02/08 10:02:13;;;;;;;;;;;-3.90;77.10;;;;;;5003174;28;89613;-37
2023/02/08 10:04:45;;;;;;;;;;;-3.90;77.20;;;;;;5004174;28;87028;-37
2023/02/08 10:07:10;;;;;;;;;;;-3.90;77.10;;;;;;5003972;28;87550;-37
2023/02/08 10:09:36;;;;;;;;;;;-3.90;77.30;;;;;;5003399;28;89715;-37
2023/02/08 10:12:01;;;;;;;;;;;-3.90;77.30;;;;;;5003880;28;87167;-37
2023/02/08 10:14:27;;;;;;;;;;;-3.90;77.40;;;;;;5003479;28;88938;-37
2023/02/08 10:16:55;;;;;;;;;;;-3.90;77.50;;;;;;5003538;28;89472;-37
2023/02/08 10:19:36;;;;;;;;;;;-3.90;77.60;;;;;;5004460;28;86524;-37
2023/02/08 10:22:20;;;;;;;;;;;-3.90;77.30;;;;;;5006269;28;88267;-37
2023/02/08 10:24:54;;;;;;;;;;;-3.80;77.60;;;;;;5003368;28;87081;-37
2023/02/08 10:27:25;;;;;;;;;;;-3.80;77.60;;;;;;5003253;28;89016;-37
2023/02/08 10:30:09;;;;;;;;;;;-3.80;77.70;;;;;;5003294;28;89589;-37
2023/02/08 10:32:43;;;;;;;;;;;-3.80;77.70;;;;;;5003808;28;87026;-37
2023/02/08 10:35:10;;;;;;;;;;;-3.80;77.70;;;;;;5003229;28;88838;-37
2023/02/08 10:37:39;;;;;;;;;;;-3.80;77.60;;;;;;5003069;28;89718;-37
2023/02/08 10:40:20;;;;;;;;;;;-3.80;77.50;;;;;;5003363;28;87108;-37
2023/02/08 10:42:54;;;;;;;;;;;-3.80;77.50;;;;;;5003221;28;89101;-37
2023/02/08 10:45:20;;;;;;;;;;;-3.70;77.50;;;;;;5006418;28;88861;-37
2023/02/08 10:47:47;;;;;;;;;;;-3.70;77.10;;;;;;5003414;28;87021;-37
2023/02/08 10:50:14;;;;;;;;;;;-3.60;77.10;;;;;;5002844;28;89505;-37
2023/02/08 10:55:23;;;;;;;;;;;-3.50;76.20;;;;;;5003510;28;87592;-37
2023/02/08 10:57:51;;;;;;;;;;;-3.40;75.90;;;;;;5002699;28;89292;-37
2023/02/08 11:00:22;;;;;;;;;;;-3.30;75.70;;;;;;5002967;28;87160;-37
2023/02/08 11:02:49;;;;;;;;;;;-3.40;75.70;;;;;;5003206;28;88806;-37
2023/02/08 11:05:19;;;;;;;;;;;-3.30;75.30;;;;;;5002465;28;89729;-37
2023/02/08 11:07:45;;;;;;;;;;;-3.30;75.10;;;;;;5006198;28;87030;-37
2023/02/08 11:10:14;;;;;;;;;;;-3.20;74.80;;;;;;5003023;28;88556;-37
2023/02/08 11:12:40;;;;;;;;;;;-3.20;74.70;;;;;;5002779;28;87018;-37
2023/02/08 11:15:19;;;;;;;;;;;-3.20;74.70;;;;;;5003255;28;87227;-37
2023/02/08 11:17:45;;;;;;;;;;;-3.20;74.90;;;;;;5001709;28;90511;-37
2023/02/08 11:20:19;;;;;;;;;;;-3.10;74.90;;;;;;5002199;28;87125;-37
2023/02/08 11:22:45;;;;;;;;;;;-3.20;75.20;;;;;;5002871;28;88882;-37
2023/02/08 11:25:28;;;;;;;;;;;-3.20;74.80;;;;;;5002265;28;88469;-37
2023/02/08 11:27:54;;;;;;;;;;;-3.20;74.50;;;;;;5005939;28;87275;-37
2023/02/08 11:30:21;;;;;;;;;;;-3.10;74.60;;;;;;5002306;28;89338;-37
2023/02/08 11:33:07;;;;;;;;;;;-3.10;74.30;;;;;;5002637;28;87124;-37
2023/02/08 11:35:32;;;;;;;;;;;-3.10;74.30;;;;;;5002846;28;87464;-37
2023/02/08 11:37:58;;;;;;;;;;;-3.10;74.30;;;;;;5002007;28;89919;-37
2023/02/08 11:40:29;;;;;;;;;;;-3.10;74.20;;;;;;5002489;28;87088;-37
2023/02/08 11:42:55;;;;;;;;;;;-3.10;74.00;;;;;;5001814;28;88878;-37
2023/02/08 11:45:27;;;;;;;;;;;-3.10;74.10;;;;;;5002036;28;89271;-37
2023/02/08 11:47:53;;;;;;;;;;;-3.00;74.10;;;;;;5002212;28;87077;-37
2023/02/08 11:50:33;;;;;;;;;;;-2.90;73.50;;;;;;5005277;28;87219;-37
2023/02/08 11:53:03;;;;;;;;;;;-2.90;73.70;;;;;;5002405;28;87136;-37
2023/02/08 11:55:30;;;;;;;;;;;-3.00;73.50;;;;;;5002274;28;88575;-37
2023/02/08 11:58:03;;;;;;;;;;;-2.90;73.80;;;;;;5001993;28;89503;-37
2023/02/08 12:00:30;;;;;;;;;;;-2.90;73.90;;;;;;5002834;28;86316;-37
2023/02/08 12:02:59;;;;;;;;;;;-2.80;73.60;;;;;;5002103;28;88296;-37
2023/02/08 12:05:51;;;;;;;;;;;-2.80;73.60;;;;;;5001568;28;89678;-37
2023/02/08 12:08:37;;;;;;;;;;;-2.80;73.70;;;;;;4984520;28;88119;-37
2023/02/08 12:11:03;;;;;;;;;;;-2.80;73.70;;;;;;4994400;28;88341;-37
2023/02/08 12:13:37;;;;;;;;;;;-2.80;73.50;;;;;;5004425;28;89631;-37
2023/02/08 12:16:35;;;;;;;;;;;-2.80;73.70;;;;;;5002199;28;89002;-37
2023/02/08 12:19:03;;;;;;;;;;;-2.90;74.20;;;;;;4978387;28;89746;-37
2023/02/08 12:21:34;;;;;;;;;;;-2.80;73.90;;;;;;5002411;28;87120;-37
2023/02/08 12:24:12;;;;;;;;;;;-2.80;73.60;;;;;;5002155;28;87582;-37
2023/02/08 12:26:40;;;;;;;;;;;-2.80;74.00;;;;;;5002485;28;87300;-37
2023/02/08 12:29:09;;;;;;;;;;;-2.70;73.90;;;;;;5001771;28;87128;-37
2023/02/08 12:31:37;;;;;;;;;;;-2.80;73.80;;;;;;5001869;28;87754;-37
2023/02/08 12:34:16;;;;;;;;;;;-2.70;73.60;;;;;;5003558;28;90398;-37
2023/02/08 12:42:40;;;;;;;;;;;-2.80;73.80;;;;;;5005557;28;87121;-37
2023/02/08 12:45:06;;;;;;;;;;;-2.80;74.10;;;;;;5005305;28;88096;-37
2023/02/08 12:48:10;;;;;;;;;;;-2.70;73.80;;;;;;5005053;28;88521;-37
2023/02/08 12:50:39;;;;;;;;;;;-2.80;73.80;;;;;;4963131;28;87063;-37
2023/02/08 12:53:14;;;;;;;;;;;-2.80;73.90;;;;;;4963720;28;88857;-37
2023/02/08 12:55:41;;;;;;;;;;;-2.80;74.20;;;;;;4985657;28;88260;-37
2023/02/08 12:58:18;;;;;;;;;;;-2.70;74.00;;;;;;5005044;28;87168;-37
2023/02/08 13:00:45;;;;;;;;;;;-2.80;74.10;;;;;;5007140;28;87864;-37
2023/02/08 13:03:13;;;;;;;;;;;-2.70;73.80;;;;;;5005224;28;87113;-37
2023/02/08 13:05:41;;;;;;;;;;;-2.70;73.80;;;;;;5004220;28;88950;-37
2023/02/08 13:08:26;;;;;;;;;;;-2.70;73.80;;;;;;5004840;28;88591;-37
2023/02/08 13:10:57;;;;;;;;;;;-2.70;74.10;;;;;;5005018;28;87050;-37
2023/02/08 13:13:28;;;;;;;;;;;-2.80;74.10;;;;;;5004939;28;88835;-37
2023/02/08 13:15:53;;;;;;;;;;;-2.70;74.00;;;;;;5004689;28;87993;-37
2023/02/08 13:18:48;;;;;;;;;;;-2.70;73.80;;;;;;5004773;28;86350;-37
2023/02/08 13:21:22;;;;;;;;;;;-2.60;73.90;;;;;;4967671;28;87215;-37
2023/02/08 13:23:48;;;;;;;;;;;-2.60;73.80;;;;;;5007183;28;89723;-37
2023/02/08 13:26:14;;;;;;;;;;;-2.60;73.60;;;;;;5004086;28;87845;-37
2023/02/08 13:28:40;;;;;;;;;;;-2.60;73.40;;;;;;5004264;28;87123;-37
2023/02/08 13:31:10;;;;;;;;;;;-2.60;73.70;;;;;;5004313;28;87380;-37
2023/02/08 13:33:38;;;;;;;;;;;-2.60;73.50;;;;;;5004520;28;89314;-37
2023/02/08 13:36:04;;;;;;;;;;;-2.60;73.40;;;;;;5004125;28;88449;-37
2023/02/08 13:38:34;;;;;;;;;;;-2.60;73.50;;;;;;5004314;28;86966;-37
2023/02/08 13:41:01;;;;;;;;;;;-2.60;73.40;;;;;;5004483;28;88896;-37
2023/02/08 13:43:37;;;;;;;;;;;-2.50;73.60;;;;;;5006671;28;88815;-37
2023/02/08 13:46:04;;;;;;;;;;;-2.50;73.10;;;;;;5004299;28;87195;-37
2023/02/08 13:48:40;;;;;;;;;;;-2.60;73.10;;;;;;5004121;28;88697;-37
2023/02/08 13:51:06;;;;;;;;;;;-2.50;73.30;;;;;;5003717;28;87939;-37
2023/02/08 13:53:38;;;;;;;;;;;-2.50;73.10;;;;;;5004279;28;89720;-37
2023/02/08 13:56:10;;;;;;;;;;;-2.60;73.30;;;;;;5003586;28;89348;-37
2023/02/08 13:58:36;;;;;;;;;;;-2.60;73.10;;;;;;5003988;28;87139;-37
2023/02/08 14:01:11;;;;;;;;;;;-2.50;73.00;;;;;;5003908;28;88774;-37
2023/02/08 14:03:37;;;;;;;;;;;-2.50;73.10;;;;;;5003826;28;89575;-37
2023/02/08 14:06:05;;;;;;;;;;;-2.50;73.00;;;;;;5006715;28;87157;-37
2023/02/08 14:08:50;;;;;;;;;;;-2.50;72.90;;;;;;5003759;28;88949;-37
2023/02/08 14:11:19;;;;;;;;;;;-2.50;73.10;;;;;;5004009;28;87133;-37
2023/02/08 14:13:47;;;;;;;;;;;-2.50;72.90;;;;;;5004180;28;88546;-37
2023/02/08 14:16:28;;;;;;;;;;;-2.50;72.50;;;;;;5002893;28;90915;-37
2023/02/08 14:18:58;;;;;;;;;;;-2.40;72.90;;;;;;5003799;28;87094;-37
2023/02/08 14:21:36;;;;;;;;;;;-2.40;72.70;;;;;;5003891;28;87670;-37
2023/02/08 14:24:03;;;;;;;;;;;-2.50;72.70;;;;;;5003480;28;88501;-37
2023/02/08 14:26:29;;;;;;;;;;;-2.60;72.80;;;;;;5003218;28;87202;-37
2023/02/08 14:28:57;;;;;;;;;;;-2.60;73.00;;;;;;5006193;28;88989;-37
2023/02/08 14:31:34;;;;;;;;;;;-2.60;73.10;;;;;;5003588;28;87107;-37
2023/02/08 14:34:00;;;;;;;;;;;-2.50;72.80;;;;;;5004087;28;88780;-37